• Join FlightAware (Why Join?)
  • Login
  • US Flag 
11:42PM EST


 

Airport Tracker/Info


-or-


 

Live Flight TrackerFlight Track Log ✈ N2915G ✈ 20-Apr-2014 ✈ KPIE - KISM

Flight Track Log - Related Links

Times and Time Zones

All times are in EDT time to prevent confusion due to time zone crossing. See the N2915G flight status page for this flight to view local times or setup timezone preferences in your user account.

Time Position Orientation Groundspeed Altitude Reporting Facility
EDT Latitude Longitude Course Direction KTS MPH feet Rate Location/Type
05:46PM 27.9167 -82.6833 336° Northwest 120 138 400  Level Tampa TRACON
05:48PM 27.9500 -82.7000 336° Northwest 92 106 1,200 360 Climbing Tampa TRACON
05:49PM 27.9167 -82.7167 204° Southwest 124 143 1,200 120 Level Tampa TRACON
05:50PM 27.9167 -82.7000 90° East 121 139 1,500 300 Climbing Tampa TRACON
05:51PM 27.9333 -82.7167 319° Northwest 104 120 1,900 540 Climbing Tampa TRACON
05:52PM 27.9667 -82.7000 24° Northeast 90 104 2,600 660 Climbing Tampa TRACON
05:52PM 27.9667 -82.6833 90° East 90 104 3,200 600 Climbing Tampa TRACON
05:54PM 27.9833 -82.6500 60° Northeast 93 107 3,900 360 Climbing Tampa TRACON
05:54PM 27.9833 -82.6167 90° East 117 135 4,000  Climbing Tampa TRACON
05:56PM 27.9833 -82.5667 90° East 138 159 3,900 -60 Descending Tampa TRACON
05:57PM 27.9833 -82.5333 90° East 131 151 3,900  Level Tampa TRACON
05:57PM 27.9667 -82.4833 111° Southeast 129 148 3,900  Level Tampa TRACON
05:59PM 27.9667 -82.4500 90° East 127 146 3,900  Level Tampa TRACON
06:00PM 27.9833 -82.4000 69° East 124 143 3,900  Level Tampa TRACON
06:01PM 28.0000 -82.3833 41° Northeast 121 139 4,000 360 Climbing Tampa TRACON
06:02PM 28.0167 -82.3500 60° Northeast 111 128 4,600 420 Climbing Tampa TRACON
06:03PM 28.0333 -82.3167 60° Northeast 115 132 4,900 120 Climbing Tampa TRACON
06:04PM 28.0500 -82.2833 60° Northeast 129 148 4,900  Level Tampa TRACON
06:05PM 28.0667 -82.2500 60° Northeast 129 148 5,000  Climbing Tampa TRACON
06:06PM 28.1000 -82.2167 41° Northeast 123 142 4,900  Descending Tampa TRACON
06:08PM 28.1333 -82.1333 66° East 121 139 5,000  Climbing Orlando TRACON
06:09PM 28.1500 -82.1000 60° Northeast 123 142 5,000 -60 Level Orlando TRACON
06:10PM 28.1667 -82.0833 41° Northeast 124 143 4,900  Descending Orlando TRACON
06:11PM 28.1667 -82.0333 90° East 128 147 5,000  Climbing Orlando TRACON
06:12PM 28.1833 -82.0000 60° Northeast 125 144 5,000 -60 Level Orlando TRACON
06:13PM 28.1833 -81.9667 90° East 127 146 4,900 -60 Descending Orlando TRACON
06:14PM 28.2000 -81.9167 69° East 129 148 4,900 -60 Level Orlando TRACON
06:15PM 28.2000 -81.8833 90° East 128 147 4,800 -300 Descending Orlando TRACON
06:16PM 28.2167 -81.8333 69° East 141 162 4,300 -660 Descending Orlando TRACON
06:17PM 28.2167 -81.7833 90° East 150 173 3,500 -900 Descending Orlando TRACON
06:18PM 28.2333 -81.7333 69° East 152 175 2,500 -600 Descending Orlando TRACON
06:19PM 28.2333 -81.7000 90° East 130 150 2,300 -180 Descending Orlando TRACON
06:20PM 28.2500 -81.6667 60° Northeast 127 146 2,200 -180 Descending Orlando TRACON
06:21PM 28.2500 -81.6167 90° East 128 147 2,000 -180 Descending Orlando TRACON
06:22PM 28.2667 -81.5833 60° Northeast 133 153 1,900 -240 Descending Orlando TRACON
06:23PM 28.2667 -81.5333 90° East 133 153 1,600 -360 Descending Orlando TRACON
06:24PM 28.2667 -81.5000 90° East 136 157 1,300 -240 Descending Orlando TRACON
06:25PM 28.2667 -81.4667 90° East 129 148 1,200 -300 Descending Orlando TRACON
06:26PM 28.2667 -81.4333 90° East 89 102 700 -540 Descending Orlando TRACON
06:28PM 28.2898 -81.4371 North  Level Estimated
06:35PM 28.2898 -81.4371 103° East  Level Estimated
06:36PM 28.2898 -81.4371 153° Southeast  Level Estimated